Terminal Aerodrome Forecast
Issued by NWS

Home | Current Version | Previous Version | Text Only | Print | Product List | Glossary On
Versions: 1 2 3 4 5 6 7 8 9 10 11 12 13 14 15 16 17 18 19 20 21 22 23 24 25 26 27 28 29 30 31 32 33
000
FTUS46 KPDT 212000 AAB
TAFALW
TAF AMD
KALW 212028Z 2120/2218 VRB04KT 3SM BR BKN120
     FM212100 13007KT 3SM BR OVC070
     FM220200 19012KT 3SM -RA BR SCT020 OVC050
     FM221200 22012G20KT 5SM -RA BR OVC015=

USA.gov is the U.S. government's official web portal to all federal, state and local government web resources and services.